sensor_id;sensor_type;location;lat;lon;timestamp;pressure;altitude;pressure_sealevel;temperature;humidity
53116;BME280;39010;48.088;7.954;2022-12-18T13:33:38;99596.03;;;10.90;37.96
53116;BME280;39010;48.088;7.954;2022-12-18T13:38:45;99610.06;;;3.65;54.50
53116;BME280;39010;48.088;7.954;2022-12-18T13:42:36;99616.25;;;0.62;63.78
53116;BME280;39010;48.088;7.954;2022-12-18T13:45:39;99615.53;;;-0.93;70.82
53116;BME280;39010;48.088;7.954;2022-12-18T13:48:13;99628.38;;;-2.23;78.60
53116;BME280;39010;48.088;7.954;2022-12-18T13:50:41;99628.91;;;-2.33;81.73
53116;BME280;39010;48.088;7.954;2022-12-18T13:54:01;99626.53;;;-2.75;83.79
53116;BME280;39010;48.088;7.954;2022-12-18T13:56:32;99629.50;;;-3.02;86.66
53116;BME280;39010;48.088;7.954;2022-12-18T13:59:04;99624.28;;;-3.42;88.35
53116;BME280;39010;48.088;7.954;2022-12-18T14:01:32;99617.97;;;-3.57;90.96
53116;BME280;39010;48.088;7.954;2022-12-18T14:04:09;99621.38;;;-3.55;91.78
53116;BME280;39010;48.088;7.954;2022-12-18T14:06:38;99604.97;;;-3.60;91.52
53116;BME280;39010;48.088;7.954;2022-12-18T14:09:08;99612.41;;;-3.70;92.72
53116;BME280;39010;48.088;7.954;2022-12-18T14:11:37;99605.78;;;-3.38;93.37
53116;BME280;39010;48.088;7.954;2022-12-18T14:14:06;99606.38;;;-3.32;90.75
53116;BME280;39010;48.088;7.954;2022-12-18T14:16:33;99611.19;;;-3.22;91.03
53116;BME280;39010;48.088;7.954;2022-12-18T14:19:01;99610.03;;;-3.36;91.38
53116;BME280;39010;48.088;7.954;2022-12-18T14:21:48;99609.94;;;-3.73;93.29
53116;BME280;39010;48.088;7.954;2022-12-18T14:24:19;99606.13;;;-3.86;95.12
53116;BME280;39010;48.088;7.954;2022-12-18T14:26:47;99609.94;;;-3.73;95.49
53116;BME280;39010;48.088;7.954;2022-12-18T14:31:50;99610.50;;;-4.07;96.71
53116;BME280;39010;48.088;7.954;2022-12-18T14:34:31;99614.06;;;-3.88;96.94
53116;BME280;39010;48.088;7.954;2022-12-18T14:36:57;99612.09;;;-4.03;98.13
53116;BME280;39010;48.088;7.954;2022-12-18T14:39:24;99614.97;;;-3.89;97.32
53116;BME280;39010;48.088;7.954;2022-12-18T14:41:52;99605.13;;;-3.83;97.18
53116;BME280;39010;48.088;7.954;2022-12-18T14:44:19;99607.69;;;-3.82;98.12
53116;BME280;39010;48.088;7.954;2022-12-18T14:46:48;99612.94;;;-3.61;97.56
53116;BME280;39010;48.088;7.954;2022-12-18T14:49:20;99606.44;;;-3.73;97.23
53116;BME280;39010;48.088;7.954;2022-12-18T14:51:54;99613.78;;;-3.81;98.56
53116;BME280;39010;48.088;7.954;2022-12-18T14:54:22;99616.22;;;-3.77;98.67
53116;BME280;39010;48.088;7.954;2022-12-18T14:56:51;99619.94;;;-4.03;100.00
53116;BME280;39010;48.088;7.954;2022-12-18T14:59:23;99613.38;;;-4.14;100.00
53116;BME280;39010;48.088;7.954;2022-12-18T15:01:57;99623.84;;;-4.34;100.00
53116;BME280;39010;48.088;7.954;2022-12-18T15:04:27;99639.97;;;-4.66;100.00
53116;BME280;39010;48.088;7.954;2022-12-18T15:09:33;99637.41;;;-4.90;100.00
53116;BME280;39010;48.088;7.954;2022-12-18T15:12:00;99642.53;;;-4.86;100.00
53116;BME280;39010;48.088;7.954;2022-12-18T15:14:41;99640.13;;;-4.93;100.00
53116;BME280;39010;48.088;7.954;2022-12-18T15:17:18;99647.75;;;-4.86;100.00
53116;BME280;39010;48.088;7.954;2022-12-18T15:19:47;99646.72;;;-4.82;100.00
53116;BME280;39010;48.088;7.954;2022-12-18T15:22:18;99653.69;;;-4.81;100.00
53116;BME280;39010;48.088;7.954;2022-12-18T15:24:47;99649.66;;;-4.68;100.00
53116;BME280;39010;48.088;7.954;2022-12-18T15:27:21;99668.41;;;-4.55;100.00
53116;BME280;39010;48.088;7.954;2022-12-18T15:30:00;99663.81;;;-4.50;100.00
53116;BME280;39010;48.088;7.954;2022-12-18T15:32:29;99669.97;;;-4.51;100.00
53116;BME280;39010;48.088;7.954;2022-12-18T15:37:39;99669.06;;;-4.50;100.00
53116;BME280;39010;48.088;7.954;2022-12-18T15:40:14;99657.59;;;-4.47;100.00
53116;BME280;39010;48.088;7.954;2022-12-18T15:42:43;99663.59;;;-4.44;100.00
53116;BME280;39010;48.088;7.954;2022-12-18T15:45:28;99658.06;;;-4.37;100.00
53116;BME280;39010;48.088;7.954;2022-12-18T15:47:54;99658.81;;;-4.34;100.00
53116;BME280;39010;48.088;7.954;2022-12-18T15:50:21;99656.31;;;-4.59;100.00
53116;BME280;39010;48.088;7.954;2022-12-18T15:52:48;99658.78;;;-4.78;100.00
53116;BME280;39010;48.088;7.954;2022-12-18T15:55:21;99658.06;;;-4.82;100.00
53116;BME280;39010;48.088;7.954;2022-12-18T15:58:07;99651.88;;;-4.57;100.00
53116;BME280;39010;48.088;7.954;2022-12-18T16:00:35;99661.25;;;-4.51;100.00
53116;BME280;39010;48.088;7.954;2022-12-18T16:03:02;99660.03;;;-4.42;100.00
53116;BME280;39010;48.088;7.954;2022-12-18T16:05:29;99649.03;;;-4.30;100.00
53116;BME280;39010;48.088;7.954;2022-12-18T16:07:56;99663.72;;;-4.26;100.00
53116;BME280;39010;48.088;7.954;2022-12-18T16:10:22;99652.19;;;-4.22;100.00
53116;BME280;39010;48.088;7.954;2022-12-18T16:12:52;99645.25;;;-4.23;100.00
53116;BME280;39010;48.088;7.954;2022-12-18T16:15:19;99639.69;;;-4.15;100.00
53116;BME280;39010;48.088;7.954;2022-12-18T16:17:51;99642.31;;;-4.15;100.00
53116;BME280;39010;48.088;7.954;2022-12-18T16:20:19;99640.53;;;-4.15;100.00
53116;BME280;39010;48.088;7.954;2022-12-18T16:22:47;99637.53;;;-4.05;100.00
53116;BME280;39010;48.088;7.954;2022-12-18T16:25:21;99642.25;;;-4.14;100.00
53116;BME280;39010;48.088;7.954;2022-12-18T16:27:51;99644.59;;;-4.07;100.00
53116;BME280;39010;48.088;7.954;2022-12-18T16:30:19;99643.78;;;-4.08;100.00
53116;BME280;39010;48.088;7.954;2022-12-18T16:32:46;99643.91;;;-4.11;100.00
53116;BME280;39010;48.088;7.954;2022-12-18T16:35:15;99643.00;;;-4.32;100.00
53116;BME280;39010;48.088;7.954;2022-12-18T16:37:43;99635.34;;;-4.37;100.00
53116;BME280;39010;48.088;7.954;2022-12-18T16:40:10;99633.97;;;-4.25;100.00
53116;BME280;39010;48.088;7.954;2022-12-18T16:42:38;99627.00;;;-4.26;100.00
53116;BME280;39010;48.088;7.954;2022-12-18T16:45:05;99627.69;;;-4.21;100.00
53116;BME280;39010;48.088;7.954;2022-12-18T16:47:32;99631.94;;;-4.18;100.00
53116;BME280;39010;48.088;7.954;2022-12-18T16:50:00;99633.31;;;-4.09;100.00
53116;BME280;39010;48.088;7.954;2022-12-18T16:52:27;99641.72;;;-4.01;100.00
53116;BME280;39010;48.088;7.954;2022-12-18T16:54:55;99641.81;;;-4.03;100.00
53116;BME280;39010;48.088;7.954;2022-12-18T16:57:22;99632.16;;;-4.02;100.00
53116;BME280;39010;48.088;7.954;2022-12-18T16:59:51;99635.31;;;-3.94;100.00
53116;BME280;39010;48.088;7.954;2022-12-18T17:02:21;99625.81;;;-3.96;100.00
53116;BME280;39010;48.088;7.954;2022-12-18T17:04:57;99631.06;;;-3.96;100.00
53116;BME280;39010;48.088;7.954;2022-12-18T17:07:24;99623.09;;;-3.95;100.00
53116;BME280;39010;48.088;7.954;2022-12-18T17:09:52;99621.47;;;-3.97;100.00
53116;BME280;39010;48.088;7.954;2022-12-18T17:12:19;99613.34;;;-3.91;100.00
53116;BME280;39010;48.088;7.954;2022-12-18T17:14:46;99614.31;;;-3.94;100.00
53116;BME280;39010;48.088;7.954;2022-12-18T17:17:12;99618.59;;;-3.91;100.00
53116;BME280;39010;48.088;7.954;2022-12-18T17:19:49;99608.03;;;-3.90;100.00
53116;BME280;39010;48.088;7.954;2022-12-18T17:22:15;99614.97;;;-3.89;100.00
53116;BME280;39010;48.088;7.954;2022-12-18T17:24:42;99613.91;;;-3.85;100.00
53116;BME280;39010;48.088;7.954;2022-12-18T17:27:10;99604.34;;;-3.86;100.00
53116;BME280;39010;48.088;7.954;2022-12-18T17:29:36;99605.41;;;-3.90;100.00
53116;BME280;39010;48.088;7.954;2022-12-18T17:32:10;99594.75;;;-3.87;100.00
53116;BME280;39010;48.088;7.954;2022-12-18T17:34:39;99589.13;;;-3.77;100.00
53116;BME280;39010;48.088;7.954;2022-12-18T17:37:07;99584.88;;;-3.80;100.00
53116;BME280;39010;48.088;7.954;2022-12-18T17:39:33;99571.53;;;-3.75;100.00
53116;BME280;39010;48.088;7.954;2022-12-18T17:42:01;99566.41;;;-3.78;100.00
53116;BME280;39010;48.088;7.954;2022-12-18T17:44:27;99565.84;;;-3.85;100.00
53116;BME280;39010;48.088;7.954;2022-12-18T17:46:54;99563.75;;;-3.77;100.00
53116;BME280;39010;48.088;7.954;2022-12-18T17:49:29;99559.19;;;-3.73;100.00
53116;BME280;39010;48.088;7.954;2022-12-18T17:51:57;99566.00;;;-3.69;100.00
53116;BME280;39010;48.088;7.954;2022-12-18T17:54:23;99557.22;;;-3.68;100.00
53116;BME280;39010;48.088;7.954;2022-12-18T17:56:51;99578.09;;;-3.65;100.00
53116;BME280;39010;48.088;7.954;2022-12-18T17:59:18;99580.56;;;-3.62;100.00
53116;BME280;39010;48.088;7.954;2022-12-18T18:01:44;99594.22;;;-3.74;100.00
53116;BME280;39010;48.088;7.954;2022-12-18T18:04:11;99595.38;;;-3.80;100.00
53116;BME280;39010;48.088;7.954;2022-12-18T18:06:38;99598.72;;;-3.97;100.00
53116;BME280;39010;48.088;7.954;2022-12-18T18:09:07;99604.16;;;-4.02;100.00
53116;BME280;39010;48.088;7.954;2022-12-18T18:11:43;99590.44;;;-4.08;100.00
53116;BME280;39010;48.088;7.954;2022-12-18T18:14:30;99597.78;;;-3.96;100.00
53116;BME280;39010;48.088;7.954;2022-12-18T18:16:56;99607.84;;;-3.85;100.00
53116;BME280;39010;48.088;7.954;2022-12-18T18:19:32;99613.78;;;-3.81;100.00
53116;BME280;39010;48.088;7.954;2022-12-18T18:21:58;99596.28;;;-3.81;100.00
53116;BME280;39010;48.088;7.954;2022-12-18T18:24:26;99595.41;;;-3.81;100.00
53116;BME280;39010;48.088;7.954;2022-12-18T18:26:53;99596.94;;;-3.76;100.00
53116;BME280;39010;48.088;7.954;2022-12-18T18:29:27;99591.75;;;-3.77;100.00
53116;BME280;39010;48.088;7.954;2022-12-18T18:31:56;99601.97;;;-3.71;100.00
53116;BME280;39010;48.088;7.954;2022-12-18T18:34:23;99603.91;;;-3.75;100.00
53116;BME280;39010;48.088;7.954;2022-12-18T18:36:50;99598.72;;;-3.97;100.00
53116;BME280;39010;48.088;7.954;2022-12-18T18:39:17;99612.69;;;-3.96;100.00
53116;BME280;39010;48.088;7.954;2022-12-18T18:41:44;99623.63;;;-4.07;100.00
53116;BME280;39010;48.088;7.954;2022-12-18T18:44:14;99621.72;;;-4.24;100.00
53116;BME280;39010;48.088;7.954;2022-12-18T18:46:40;99624.91;;;-4.38;100.00
53116;BME280;39010;48.088;7.954;2022-12-18T18:49:07;99618.03;;;-4.41;100.00
53116;BME280;39010;48.088;7.954;2022-12-18T18:51:33;99618.09;;;-4.42;100.00
53116;BME280;39010;48.088;7.954;2022-12-18T18:54:00;99611.78;;;-4.38;100.00
53116;BME280;39010;48.088;7.954;2022-12-18T18:56:27;99610.16;;;-4.41;100.00
53116;BME280;39010;48.088;7.954;2022-12-18T18:59:14;99610.75;;;-4.34;100.00
53116;BME280;39010;48.088;7.954;2022-12-18T19:01:40;99611.88;;;-4.40;100.00
53116;BME280;39010;48.088;7.954;2022-12-18T19:04:07;99616.47;;;-4.24;100.00
53116;BME280;39010;48.088;7.954;2022-12-18T19:06:33;99603.66;;;-4.32;100.00
53116;BME280;39010;48.088;7.954;2022-12-18T19:09:01;99591.09;;;-4.24;100.00
53116;BME280;39010;48.088;7.954;2022-12-18T19:11:29;99594.31;;;-4.17;100.00
53116;BME280;39010;48.088;7.954;2022-12-18T19:14:14;99578.13;;;-4.06;100.00
53116;BME280;39010;48.088;7.954;2022-12-18T19:16:41;99589.47;;;-4.06;100.00
53116;BME280;39010;48.088;7.954;2022-12-18T19:19:10;99572.59;;;-4.00;100.00
53116;BME280;39010;48.088;7.954;2022-12-18T19:21:37;99556.59;;;-3.94;100.00
53116;BME280;39010;48.088;7.954;2022-12-18T19:24:03;99552.78;;;-3.87;100.00
53116;BME280;39010;48.088;7.954;2022-12-18T19:26:30;99553.66;;;-3.86;100.00
53116;BME280;39010;48.088;7.954;2022-12-18T19:29:00;99542.03;;;-3.80;100.00
53116;BME280;39010;48.088;7.954;2022-12-18T19:31:28;99544.38;;;-3.74;100.00
53116;BME280;39010;48.088;7.954;2022-12-18T19:34:01;99539.13;;;-3.74;100.00
53116;BME280;39010;48.088;7.954;2022-12-18T19:36:28;99536.50;;;-3.74;100.00
53116;BME280;39010;48.088;7.954;2022-12-18T19:38:58;99534.66;;;-3.72;100.00
53116;BME280;39010;48.088;7.954;2022-12-18T19:41:26;99538.09;;;-3.91;100.00
53116;BME280;39010;48.088;7.954;2022-12-18T19:43:56;99531.28;;;-3.95;100.00
53116;BME280;39010;48.088;7.954;2022-12-18T19:46:23;99524.84;;;-3.88;100.00
53116;BME280;39010;48.088;7.954;2022-12-18T19:48:50;99551.69;;;-3.81;100.00
53116;BME280;39010;48.088;7.954;2022-12-18T19:51:18;99567.16;;;-3.75;100.00
53116;BME280;39010;48.088;7.954;2022-12-18T19:53:45;99551.63;;;-4.00;100.00
53116;BME280;39010;48.088;7.954;2022-12-18T19:56:13;99564.09;;;-4.05;100.00
53116;BME280;39010;48.088;7.954;2022-12-18T19:58:40;99553.06;;;-3.93;100.00
53116;BME280;39010;48.088;7.954;2022-12-18T20:01:07;99545.69;;;-3.85;100.00
53116;BME280;39010;48.088;7.954;2022-12-18T20:03:38;99526.78;;;-3.72;100.00
53116;BME280;39010;48.088;7.954;2022-12-18T20:06:07;99523.38;;;-3.74;100.00
53116;BME280;39010;48.088;7.954;2022-12-18T20:08:35;99518.22;;;-3.76;100.00
53116;BME280;39010;48.088;7.954;2022-12-18T20:11:01;99523.19;;;-3.70;100.00
53116;BME280;39010;48.088;7.954;2022-12-18T20:13:28;99535.81;;;-3.59;100.00
53116;BME280;39010;48.088;7.954;2022-12-18T20:15:55;99539.22;;;-3.57;100.00
53116;BME280;39010;48.088;7.954;2022-12-18T20:18:22;99540.22;;;-3.59;100.00
53116;BME280;39010;48.088;7.954;2022-12-18T20:20:48;99555.75;;;-3.74;100.00
53116;BME280;39010;48.088;7.954;2022-12-18T20:23:16;99548.56;;;-3.70;100.00
53116;BME280;39010;48.088;7.954;2022-12-18T20:25:44;99542.66;;;-3.75;100.00
53116;BME280;39010;48.088;7.954;2022-12-18T20:28:11;99542.91;;;-3.61;100.00
53116;BME280;39010;48.088;7.954;2022-12-18T20:30:38;99549.56;;;-3.34;100.00
53116;BME280;39010;48.088;7.954;2022-12-18T20:33:05;99543.47;;;-3.35;100.00
53116;BME280;39010;48.088;7.954;2022-12-18T20:35:31;99552.97;;;-3.32;100.00
53116;BME280;39010;48.088;7.954;2022-12-18T20:37:58;99552.56;;;-3.42;100.00
53116;BME280;39010;48.088;7.954;2022-12-18T20:40:26;99539.50;;;-3.44;100.00
53116;BME280;39010;48.088;7.954;2022-12-18T20:42:53;99550.63;;;-3.58;100.00
53116;BME280;39010;48.088;7.954;2022-12-18T20:45:20;99550.25;;;-3.69;100.00
53116;BME280;39010;48.088;7.954;2022-12-18T20:47:48;99552.34;;;-3.57;100.00
53116;BME280;39010;48.088;7.954;2022-12-18T20:50:14;99566.94;;;-3.51;100.00
53116;BME280;39010;48.088;7.954;2022-12-18T20:52:41;99563.97;;;-3.62;100.00
53116;BME280;39010;48.088;7.954;2022-12-18T20:55:07;99566.69;;;-3.85;100.00
53116;BME280;39010;48.088;7.954;2022-12-18T20:57:34;99573.88;;;-3.69;100.00
53116;BME280;39010;48.088;7.954;2022-12-18T21:00:05;99569.28;;;-3.64;100.00
53116;BME280;39010;48.088;7.954;2022-12-18T21:02:32;99563.84;;;-3.59;100.00
53116;BME280;39010;48.088;7.954;2022-12-18T21:04:59;99556.25;;;-3.65;100.00
53116;BME280;39010;48.088;7.954;2022-12-18T21:07:25;99561.63;;;-3.49;100.00
53116;BME280;39010;48.088;7.954;2022-12-18T21:09:52;99563.97;;;-3.43;100.00
53116;BME280;39010;48.088;7.954;2022-12-18T21:12:19;99570.56;;;-3.34;100.00
53116;BME280;39010;48.088;7.954;2022-12-18T21:15:13;99573.06;;;-3.31;100.00
53116;BME280;39010;48.088;7.954;2022-12-18T21:17:41;99560.38;;;-3.21;100.00
53116;BME280;39010;48.088;7.954;2022-12-18T21:20:11;99559.44;;;-3.20;100.00
53116;BME280;39010;48.088;7.954;2022-12-18T21:22:44;99557.59;;;-3.18;100.00
53116;BME280;39010;48.088;7.954;2022-12-18T21:25:11;99562.75;;;-3.17;100.00
53116;BME280;39010;48.088;7.954;2022-12-18T21:27:38;99555.53;;;-3.12;100.00
53116;BME280;39010;48.088;7.954;2022-12-18T21:30:04;99550.13;;;-3.08;100.00
53116;BME280;39010;48.088;7.954;2022-12-18T21:32:31;99543.88;;;-3.06;100.00
53116;BME280;39010;48.088;7.954;2022-12-18T21:34:58;99547.28;;;-3.04;100.00
53116;BME280;39010;48.088;7.954;2022-12-18T21:37:25;99533.78;;;-2.96;100.00
53116;BME280;39010;48.088;7.954;2022-12-18T21:39:51;99544.13;;;-2.93;100.00
53116;BME280;39010;48.088;7.954;2022-12-18T21:42:18;99546.72;;;-2.91;100.00
53116;BME280;39010;48.088;7.954;2022-12-18T21:45:03;99544.72;;;-2.86;100.00
53116;BME280;39010;48.088;7.954;2022-12-18T21:47:30;99532.50;;;-2.87;100.00
53116;BME280;39010;48.088;7.954;2022-12-18T21:49:56;99541.34;;;-2.90;100.00
53116;BME280;39010;48.088;7.954;2022-12-18T21:52:23;99554.28;;;-2.85;100.00
53116;BME280;39010;48.088;7.954;2022-12-18T21:54:58;99557.47;;;-2.78;100.00
53116;BME280;39010;48.088;7.954;2022-12-18T21:57:33;99552.28;;;-2.80;100.00
53116;BME280;39010;48.088;7.954;2022-12-18T21:59:59;99554.91;;;-2.80;100.00
53116;BME280;39010;48.088;7.954;2022-12-18T22:02:37;99558.47;;;-2.81;100.00
53116;BME280;39010;48.088;7.954;2022-12-18T22:05:04;99555.91;;;-2.83;100.00
53116;BME280;39010;48.088;7.954;2022-12-18T22:07:30;99561.09;;;-2.81;100.00
53116;BME280;39010;48.088;7.954;2022-12-18T22:09:56;99549.25;;;-2.90;100.00
53116;BME280;39010;48.088;7.954;2022-12-18T22:12:24;99536.69;;;-2.83;100.00
53116;BME280;39010;48.088;7.954;2022-12-18T22:15:08;99543.00;;;-2.87;100.00
53116;BME280;39010;48.088;7.954;2022-12-18T22:17:36;99533.41;;;-2.88;100.00
53116;BME280;39010;48.088;7.954;2022-12-18T22:20:02;99540.22;;;-2.84;100.00
53116;BME280;39010;48.088;7.954;2022-12-18T22:22:29;99541.84;;;-2.82;100.00
53116;BME280;39010;48.088;7.954;2022-12-18T22:24:55;99540.84;;;-2.79;100.00
53116;BME280;39010;48.088;7.954;2022-12-18T22:27:22;99543.78;;;-2.85;100.00
53116;BME280;39010;48.088;7.954;2022-12-18T22:29:48;99537.50;;;-2.83;100.00
53116;BME280;39010;48.088;7.954;2022-12-18T22:32:34;99540.84;;;-2.79;100.00
53116;BME280;39010;48.088;7.954;2022-12-18T22:35:03;99551.38;;;-2.79;100.00
53116;BME280;39010;48.088;7.954;2022-12-18T22:37:35;99559.88;;;-2.74;100.00
53116;BME280;39010;48.088;7.954;2022-12-18T22:40:03;99560.41;;;-2.67;100.00
53116;BME280;39010;48.088;7.954;2022-12-18T22:42:30;99560.28;;;-2.64;100.00
53116;BME280;39010;48.088;7.954;2022-12-18T22:44:56;99558.31;;;-2.60;100.00
53116;BME280;39010;48.088;7.954;2022-12-18T22:47:22;99551.16;;;-2.57;100.00
53116;BME280;39010;48.088;7.954;2022-12-18T22:49:55;99541.31;;;-2.53;100.00
53116;BME280;39010;48.088;7.954;2022-12-18T22:52:21;99529.72;;;-2.49;100.00
53116;BME280;39010;48.088;7.954;2022-12-18T22:54:50;99534.06;;;-2.48;100.00
53116;BME280;39010;48.088;7.954;2022-12-18T22:57:18;99530.19;;;-2.41;100.00
53116;BME280;39010;48.088;7.954;2022-12-18T22:59:45;99522.09;;;-2.36;100.00
53116;BME280;39010;48.088;7.954;2022-12-18T23:02:11;99511.25;;;-2.30;100.00
53116;BME280;39010;48.088;7.954;2022-12-18T23:04:37;99510.38;;;-2.30;100.00
53116;BME280;39010;48.088;7.954;2022-12-18T23:07:06;99513.63;;;-2.25;100.00
53116;BME280;39010;48.088;7.954;2022-12-18T23:09:32;99504.81;;;-2.24;100.00
53116;BME280;39010;48.088;7.954;2022-12-18T23:11:59;99517.03;;;-2.23;100.00
53116;BME280;39010;48.088;7.954;2022-12-18T23:14:25;99510.78;;;-2.20;100.00
53116;BME280;39010;48.088;7.954;2022-12-18T23:16:52;99517.81;;;-2.21;100.00
53116;BME280;39010;48.088;7.954;2022-12-18T23:19:18;99501.63;;;-2.13;100.00
53116;BME280;39010;48.088;7.954;2022-12-18T23:21:45;99504.88;;;-2.08;100.00
53116;BME280;39010;48.088;7.954;2022-12-18T23:24:11;99518.88;;;-2.08;100.00
53116;BME280;39010;48.088;7.954;2022-12-18T23:26:38;99500.13;;;-2.01;100.00
53116;BME280;39010;48.088;7.954;2022-12-18T23:29:04;99507.81;;;-1.97;100.00
53116;BME280;39010;48.088;7.954;2022-12-18T23:31:32;99502.22;;;-1.90;100.00
53116;BME280;39010;48.088;7.954;2022-12-18T23:33:59;99497.78;;;-1.90;100.00
53116;BME280;39010;48.088;7.954;2022-12-18T23:36:26;99495.59;;;-1.82;100.00
53116;BME280;39010;48.088;7.954;2022-12-18T23:38:56;99498.00;;;-1.77;100.00
53116;BME280;39010;48.088;7.954;2022-12-18T23:41:23;99489.06;;;-1.74;100.00
53116;BME280;39010;48.088;7.954;2022-12-18T23:43:51;99485.50;;;-1.73;100.00
53116;BME280;39010;48.088;7.954;2022-12-18T23:46:21;99485.34;;;-1.70;100.00
53116;BME280;39010;48.088;7.954;2022-12-18T23:48:49;99489.66;;;-1.69;100.00
53116;BME280;39010;48.088;7.954;2022-12-18T23:51:16;99493.91;;;-1.67;100.00
53116;BME280;39010;48.088;7.954;2022-12-18T23:53:43;99499.09;;;-1.65;100.00
53116;BME280;39010;48.088;7.954;2022-12-18T23:56:11;99496.91;;;-1.57;100.00
53116;BME280;39010;48.088;7.954;2022-12-18T23:58:39;99499.44;;;-1.55;100.00
